sensor_id;sensor_type;location;lat;lon;timestamp;pressure;altitude;pressure_sealevel;temperature;humidity
13705;BME280;6924;52.122;9.952;2023-02-10T00:00:21;102339.53;;;1.68;83.55
13705;BME280;6924;52.122;9.952;2023-02-10T00:02:47;102343.59;;;1.65;83.07
13705;BME280;6924;52.122;9.952;2023-02-10T00:05:15;102342.72;;;1.72;83.17
13705;BME280;6924;52.122;9.952;2023-02-10T00:07:41;102342.97;;;1.77;82.69
13705;BME280;6924;52.122;9.952;2023-02-10T00:10:08;102341.22;;;1.69;83.07
13705;BME280;6924;52.122;9.952;2023-02-10T00:12:35;102347.00;;;1.61;83.81
13705;BME280;6924;52.122;9.952;2023-02-10T00:15:03;102349.59;;;1.62;84.00
13705;BME280;6924;52.122;9.952;2023-02-10T00:17:29;102357.09;;;1.55;85.30
13705;BME280;6924;52.122;9.952;2023-02-10T00:19:56;102356.44;;;1.60;85.30
13705;BME280;6924;52.122;9.952;2023-02-10T00:22:23;102356.25;;;1.61;85.69
13705;BME280;6924;52.122;9.952;2023-02-10T00:24:50;102355.19;;;1.76;85.26
13705;BME280;6924;52.122;9.952;2023-02-10T00:27:16;102349.59;;;1.82;85.32
13705;BME280;6924;52.122;9.952;2023-02-10T00:29:48;102343.81;;;1.77;85.59
13705;BME280;6924;52.122;9.952;2023-02-10T00:32:14;102342.97;;;1.70;86.79
13705;BME280;6924;52.122;9.952;2023-02-10T00:34:42;102346.16;;;1.67;87.58
13705;BME280;6924;52.122;9.952;2023-02-10T00:37:08;102350.03;;;1.73;87.83
13705;BME280;6924;52.122;9.952;2023-02-10T00:39:36;102351.72;;;1.67;88.11
13705;BME280;6924;52.122;9.952;2023-02-10T00:42:03;102362.88;;;1.60;88.69
13705;BME280;6924;52.122;9.952;2023-02-10T00:44:29;102358.38;;;1.59;88.96
13705;BME280;6924;52.122;9.952;2023-02-10T00:46:55;102358.13;;;1.54;88.75
13705;BME280;6924;52.122;9.952;2023-02-10T00:49:22;102365.00;;;1.58;88.95
13705;BME280;6924;52.122;9.952;2023-02-10T00:51:48;102357.53;;;1.52;89.04
13705;BME280;6924;52.122;9.952;2023-02-10T00:54:15;102360.53;;;1.57;89.46
13705;BME280;6924;52.122;9.952;2023-02-10T00:56:42;102355.16;;;1.62;89.22
13705;BME280;6924;52.122;9.952;2023-02-10T00:59:11;102370.38;;;1.53;90.07
13705;BME280;6924;52.122;9.952;2023-02-10T01:01:38;102362.22;;;1.52;90.70
13705;BME280;6924;52.122;9.952;2023-02-10T01:04:05;102368.81;;;1.31;92.79
13705;BME280;6924;52.122;9.952;2023-02-10T01:06:31;102374.81;;;1.34;93.43
13705;BME280;6924;52.122;9.952;2023-02-10T01:08:58;102382.34;;;1.40;92.91
13705;BME280;6924;52.122;9.952;2023-02-10T01:11:24;102377.88;;;1.46;92.78
13705;BME280;6924;52.122;9.952;2023-02-10T01:13:52;102388.59;;;1.49;92.72
13705;BME280;6924;52.122;9.952;2023-02-10T01:16:18;102383.44;;;1.39;93.97
13705;BME280;6924;52.122;9.952;2023-02-10T01:18:45;102383.63;;;1.38;94.84
13705;BME280;6924;52.122;9.952;2023-02-10T01:21:14;102378.28;;;1.43;94.89
13705;BME280;6924;52.122;9.952;2023-02-10T01:23:40;102386.44;;;1.44;95.23
13705;BME280;6924;52.122;9.952;2023-02-10T01:26:08;102382.16;;;1.42;96.20
13705;BME280;6924;52.122;9.952;2023-02-10T01:28:35;102382.78;;;1.44;96.07
13705;BME280;6924;52.122;9.952;2023-02-10T01:31:05;102381.06;;;1.43;96.35
13705;BME280;6924;52.122;9.952;2023-02-10T01:33:32;102396.53;;;1.46;96.90
13705;BME280;6924;52.122;9.952;2023-02-10T01:36:02;102384.72;;;1.37;97.56
13705;BME280;6924;52.122;9.952;2023-02-10T01:38:29;102386.91;;;1.48;96.85
13705;BME280;6924;52.122;9.952;2023-02-10T01:40:56;102393.78;;;1.52;96.89
13705;BME280;6924;52.122;9.952;2023-02-10T01:43:22;102393.13;;;1.50;97.03
13705;BME280;6924;52.122;9.952;2023-02-10T01:45:49;102393.53;;;1.54;96.95
13705;BME280;6924;52.122;9.952;2023-02-10T01:48:17;102395.03;;;1.56;96.88
13705;BME280;6924;52.122;9.952;2023-02-10T01:50:48;102389.06;;;1.53;97.23
13705;BME280;6924;52.122;9.952;2023-02-10T01:53:16;102384.13;;;1.61;97.23
13705;BME280;6924;52.122;9.952;2023-02-10T01:55:46;102395.28;;;1.55;96.97
13705;BME280;6924;52.122;9.952;2023-02-10T01:58:15;102382.84;;;1.64;96.76
13705;BME280;6924;52.122;9.952;2023-02-10T02:00:44;102385.84;;;1.69;96.40
13705;BME280;6924;52.122;9.952;2023-02-10T02:03:11;102390.41;;;1.77;95.88
13705;BME280;6924;52.122;9.952;2023-02-10T02:05:41;102387.38;;;1.72;95.72
13705;BME280;6924;52.122;9.952;2023-02-10T02:08:09;102383.31;;;1.68;95.76
13705;BME280;6924;52.122;9.952;2023-02-10T02:10:50;102380.25;;;1.62;95.90
13705;BME280;6924;52.122;9.952;2023-02-10T02:13:25;102382.00;;;1.70;95.88
13705;BME280;6924;52.122;9.952;2023-02-10T02:15:57;102376.63;;;1.69;95.58
13705;BME280;6924;52.122;9.952;2023-02-10T02:18:32;102386.50;;;1.64;96.14
13705;BME280;6924;52.122;9.952;2023-02-10T02:21:18;102383.09;;;1.76;95.59
13705;BME280;6924;52.122;9.952;2023-02-10T02:27:28;102394.72;;;1.93;93.96
13705;BME280;6924;52.122;9.952;2023-02-10T02:30:19;102400.91;;;1.75;94.48
13705;BME280;6924;52.122;9.952;2023-02-10T02:32:57;102403.22;;;1.58;95.02
13705;BME280;6924;52.122;9.952;2023-02-10T02:35:28;102406.88;;;1.65;95.22
13705;BME280;6924;52.122;9.952;2023-02-10T02:37:56;102407.13;;;1.77;94.88
13705;BME280;6924;52.122;9.952;2023-02-10T02:40:23;102408.84;;;1.84;94.11
13705;BME280;6924;52.122;9.952;2023-02-10T02:42:49;102404.13;;;1.85;94.14
13705;BME280;6924;52.122;9.952;2023-02-10T02:45:18;102406.94;;;1.92;93.61
13705;BME280;6924;52.122;9.952;2023-02-10T02:48:03;102397.50;;;1.93;93.40
13705;BME280;6924;52.122;9.952;2023-02-10T02:50:35;102401.59;;;1.97;92.94
13705;BME280;6924;52.122;9.952;2023-02-10T02:53:09;102400.28;;;1.93;92.92
13705;BME280;6924;52.122;9.952;2023-02-10T02:55:49;102401.34;;;1.85;93.39
13705;BME280;6924;52.122;9.952;2023-02-10T02:58:20;102406.50;;;1.81;93.51
13705;BME280;6924;52.122;9.952;2023-02-10T03:00:53;102406.91;;;1.78;93.31
13705;BME280;6924;52.122;9.952;2023-02-10T03:03:23;102400.06;;;1.81;93.38
13705;BME280;6924;52.122;9.952;2023-02-10T03:05:50;102400.91;;;1.81;93.51
13705;BME280;6924;52.122;9.952;2023-02-10T03:08:16;102402.41;;;1.84;93.15
13705;BME280;6924;52.122;9.952;2023-02-10T03:10:43;102404.13;;;1.92;92.58
13705;BME280;6924;52.122;9.952;2023-02-10T03:13:09;102402.63;;;1.89;92.03
13705;BME280;6924;52.122;9.952;2023-02-10T03:15:35;102397.44;;;1.66;93.04
13705;BME280;6924;52.122;9.952;2023-02-10T03:18:02;102390.38;;;1.70;92.61
13705;BME280;6924;52.122;9.952;2023-02-10T03:20:30;102390.72;;;1.40;94.58
13705;BME280;6924;52.122;9.952;2023-02-10T03:22:56;102383.59;;;1.31;95.13
13705;BME280;6924;52.122;9.952;2023-02-10T03:25:22;102388.97;;;1.33;95.46
13705;BME280;6924;52.122;9.952;2023-02-10T03:27:49;102385.78;;;1.42;94.83
13705;BME280;6924;52.122;9.952;2023-02-10T03:30:15;102380.38;;;1.34;94.50
13705;BME280;6924;52.122;9.952;2023-02-10T03:32:42;102382.09;;;1.29;94.77
13705;BME280;6924;52.122;9.952;2023-02-10T03:35:08;102385.56;;;1.37;94.54
13705;BME280;6924;52.122;9.952;2023-02-10T03:37:36;102385.13;;;1.34;94.12
13705;BME280;6924;52.122;9.952;2023-02-10T03:40:02;102397.53;;;1.24;94.70
13705;BME280;6924;52.122;9.952;2023-02-10T03:42:28;102392.78;;;1.25;95.91
13705;BME280;6924;52.122;9.952;2023-02-10T03:44:55;102394.09;;;1.29;94.70
13705;BME280;6924;52.122;9.952;2023-02-10T03:47:21;102402.88;;;1.19;95.02
13705;BME280;6924;52.122;9.952;2023-02-10T03:49:47;102398.16;;;1.20;96.23
13705;BME280;6924;52.122;9.952;2023-02-10T03:52:14;102402.19;;;1.11;96.34
13705;BME280;6924;52.122;9.952;2023-02-10T03:54:42;102413.78;;;1.21;96.01
13705;BME280;6924;52.122;9.952;2023-02-10T03:57:10;102399.69;;;1.29;95.66
13705;BME280;6924;52.122;9.952;2023-02-10T03:59:36;102400.56;;;1.36;95.25
13705;BME280;6924;52.122;9.952;2023-02-10T04:02:03;102412.16;;;1.40;95.20
13705;BME280;6924;52.122;9.952;2023-02-10T04:04:29;102415.19;;;1.45;94.50
13705;BME280;6924;52.122;9.952;2023-02-10T04:06:56;102418.75;;;1.26;96.44
13705;BME280;6924;52.122;9.952;2023-02-10T04:09:22;102417.06;;;1.31;96.23
13705;BME280;6924;52.122;9.952;2023-02-10T04:11:50;102413.66;;;1.36;95.34
13705;BME280;6924;52.122;9.952;2023-02-10T04:14:16;102414.09;;;1.39;95.33
13705;BME280;6924;52.122;9.952;2023-02-10T04:16:43;102421.19;;;1.42;94.97
13705;BME280;6924;52.122;9.952;2023-02-10T04:19:09;102420.56;;;1.47;94.69
13705;BME280;6924;52.122;9.952;2023-02-10T04:21:36;102418.19;;;1.43;94.37
13705;BME280;6924;52.122;9.952;2023-02-10T04:24:02;102423.78;;;1.43;94.45
13705;BME280;6924;52.122;9.952;2023-02-10T04:26:29;102422.91;;;1.50;94.55
13705;BME280;6924;52.122;9.952;2023-02-10T04:28:56;102422.91;;;1.50;94.30
13705;BME280;6924;52.122;9.952;2023-02-10T04:31:23;102415.44;;;1.50;94.41
13705;BME280;6924;52.122;9.952;2023-02-10T04:33:49;102420.13;;;1.50;94.14
13705;BME280;6924;52.122;9.952;2023-02-10T04:36:16;102410.28;;;1.54;94.25
13705;BME280;6924;52.122;9.952;2023-02-10T04:38:42;102409.00;;;1.56;93.70
13705;BME280;6924;52.122;9.952;2023-02-10T04:41:09;102411.38;;;1.59;93.49
13705;BME280;6924;52.122;9.952;2023-02-10T04:43:35;102421.03;;;1.57;93.44
13705;BME280;6924;52.122;9.952;2023-02-10T04:46:03;102412.44;;;1.58;93.56
13705;BME280;6924;52.122;9.952;2023-02-10T04:48:30;102406.66;;;1.60;93.31
13705;BME280;6924;52.122;9.952;2023-02-10T04:50:56;102407.31;;;1.62;93.10
13705;BME280;6924;52.122;9.952;2023-02-10T04:53:23;102407.09;;;1.63;93.34
13705;BME280;6924;52.122;9.952;2023-02-10T04:55:49;102401.53;;;1.63;93.14
13705;BME280;6924;52.122;9.952;2023-02-10T04:58:16;102405.16;;;1.64;92.94
13705;BME280;6924;52.122;9.952;2023-02-10T05:00:42;102402.59;;;1.62;93.25
13705;BME280;6924;52.122;9.952;2023-02-10T05:03:10;102405.38;;;1.62;93.10
13705;BME280;6924;52.122;9.952;2023-02-10T05:05:36;102404.50;;;1.62;92.94
13705;BME280;6924;52.122;9.952;2023-02-10T05:08:03;102401.06;;;1.60;92.86
13705;BME280;6924;52.122;9.952;2023-02-10T05:10:29;102410.28;;;1.60;92.86
13705;BME280;6924;52.122;9.952;2023-02-10T05:12:56;102401.50;;;1.50;93.10
13705;BME280;6924;52.122;9.952;2023-02-10T05:15:22;102408.31;;;1.48;93.38
13705;BME280;6924;52.122;9.952;2023-02-10T05:17:48;102410.06;;;1.49;93.65
13705;BME280;6924;52.122;9.952;2023-02-10T05:20:16;102409.81;;;1.37;94.23
13705;BME280;6924;52.122;9.952;2023-02-10T05:22:43;102411.97;;;1.41;94.05
13705;BME280;6924;52.122;9.952;2023-02-10T05:25:09;102414.44;;;1.23;95.41
13705;BME280;6924;52.122;9.952;2023-02-10T05:27:36;102418.47;;;1.14;96.25
13705;BME280;6924;52.122;9.952;2023-02-10T05:30:05;102425.34;;;1.11;96.79
13705;BME280;6924;52.122;9.952;2023-02-10T05:32:34;102434.13;;;1.08;97.60
13705;BME280;6924;52.122;9.952;2023-02-10T05:35:00;102419.75;;;1.11;97.82
13705;BME280;6924;52.122;9.952;2023-02-10T05:37:28;102415.91;;;1.19;97.70
13705;BME280;6924;52.122;9.952;2023-02-10T05:39:55;102421.09;;;1.22;97.42
13705;BME280;6924;52.122;9.952;2023-02-10T05:42:21;102418.50;;;1.20;97.56
13705;BME280;6924;52.122;9.952;2023-02-10T05:44:48;102419.34;;;1.14;98.65
13705;BME280;6924;52.122;9.952;2023-02-10T05:47:14;102426.63;;;1.09;99.63
13705;BME280;6924;52.122;9.952;2023-02-10T05:49:41;102419.97;;;1.10;100.00
13705;BME280;6924;52.122;9.952;2023-02-10T05:52:07;102425.56;;;1.16;100.00
13705;BME280;6924;52.122;9.952;2023-02-10T05:54:35;102415.28;;;1.17;100.00
13705;BME280;6924;52.122;9.952;2023-02-10T05:57:01;102420.00;;;1.16;100.00
13705;BME280;6924;52.122;9.952;2023-02-10T05:59:28;102422.53;;;1.11;100.00
13705;BME280;6924;52.122;9.952;2023-02-10T06:01:54;102422.16;;;1.21;100.00
13705;BME280;6924;52.122;9.952;2023-02-10T06:04:21;102432.63;;;1.12;100.00
13705;BME280;6924;52.122;9.952;2023-02-10T06:06:47;102435.19;;;1.14;100.00
13705;BME280;6924;52.122;9.952;2023-02-10T06:09:14;102432.22;;;1.15;100.00
13705;BME280;6924;52.122;9.952;2023-02-10T06:11:41;102441.59;;;1.08;100.00
13705;BME280;6924;52.122;9.952;2023-02-10T06:14:08;102446.78;;;1.11;100.00
13705;BME280;6924;52.122;9.952;2023-02-10T06:16:34;102446.59;;;1.19;100.00
13705;BME280;6924;52.122;9.952;2023-02-10T06:19:01;102462.25;;;1.20;100.00
13705;BME280;6924;52.122;9.952;2023-02-10T06:21:28;102465.03;;;1.20;100.00
13705;BME280;6924;52.122;9.952;2023-02-10T06:23:55;102462.72;;;1.23;100.00
13705;BME280;6924;52.122;9.952;2023-02-10T06:26:21;102472.59;;;1.26;100.00
13705;BME280;6924;52.122;9.952;2023-02-10T06:28:49;102468.75;;;1.34;100.00
13705;BME280;6924;52.122;9.952;2023-02-10T06:31:15;102469.59;;;1.34;100.00
13705;BME280;6924;52.122;9.952;2023-02-10T06:33:42;102464.25;;;1.33;100.00
13705;BME280;6924;52.122;9.952;2023-02-10T06:36:09;102465.53;;;1.30;100.00
13705;BME280;6924;52.122;9.952;2023-02-10T06:38:36;102468.75;;;1.34;100.00
13705;BME280;6924;52.122;9.952;2023-02-10T06:41:02;102469.63;;;1.41;100.00
13705;BME280;6924;52.122;9.952;2023-02-10T06:43:29;102471.56;;;1.40;100.00
13705;BME280;6924;52.122;9.952;2023-02-10T06:45:57;102479.50;;;1.37;100.00
13705;BME280;6924;52.122;9.952;2023-02-10T06:48:23;102482.03;;;1.32;100.00
13705;BME280;6924;52.122;9.952;2023-02-10T06:50:51;102489.34;;;1.33;100.00
13705;BME280;6924;52.122;9.952;2023-02-10T06:53:17;102491.72;;;1.36;100.00
13705;BME280;6924;52.122;9.952;2023-02-10T06:55:44;102490.41;;;1.32;100.00
13705;BME280;6924;52.122;9.952;2023-02-10T06:58:10;102488.47;;;1.32;100.00
13705;BME280;6924;52.122;9.952;2023-02-10T07:00:37;102491.69;;;1.29;100.00
13705;BME280;6924;52.122;9.952;2023-02-10T07:03:05;102485.59;;;1.19;100.00
13705;BME280;6924;52.122;9.952;2023-02-10T07:05:31;102492.91;;;1.20;100.00
13705;BME280;6924;52.122;9.952;2023-02-10T07:08:00;102490.13;;;1.20;100.00
13705;BME280;6924;52.122;9.952;2023-02-10T07:10:29;102491.41;;;1.17;100.00
13705;BME280;6924;52.122;9.952;2023-02-10T07:12:56;102499.81;;;1.24;100.00
13705;BME280;6924;52.122;9.952;2023-02-10T07:15:23;102489.91;;;1.15;100.00
13705;BME280;6924;52.122;9.952;2023-02-10T07:17:50;102489.72;;;1.23;100.00
13705;BME280;6924;52.122;9.952;2023-02-10T07:20:19;102491.50;;;1.31;100.00
13705;BME280;6924;52.122;9.952;2023-02-10T07:22:45;102493.19;;;1.32;100.00
13705;BME280;6924;52.122;9.952;2023-02-10T07:25:12;102489.97;;;1.28;100.00
13705;BME280;6924;52.122;9.952;2023-02-10T07:27:38;102488.44;;;1.26;100.00
13705;BME280;6924;52.122;9.952;2023-02-10T07:30:05;102490.59;;;1.23;100.00
13705;BME280;6924;52.122;9.952;2023-02-10T07:32:32;102499.59;;;1.26;100.00
13705;BME280;6924;52.122;9.952;2023-02-10T07:34:58;102494.63;;;1.21;100.00
13705;BME280;6924;52.122;9.952;2023-02-10T07:37:26;102490.41;;;1.32;100.00
13705;BME280;6924;52.122;9.952;2023-02-10T07:39:52;102485.88;;;1.24;100.00
13705;BME280;6924;52.122;9.952;2023-02-10T07:42:19;102487.19;;;1.28;100.00
13705;BME280;6924;52.122;9.952;2023-02-10T07:44:45;102499.88;;;1.37;100.00
13705;BME280;6924;52.122;9.952;2023-02-10T07:47:12;102494.47;;;1.29;100.00
13705;BME280;6924;52.122;9.952;2023-02-10T07:49:38;102496.41;;;1.29;100.00
13705;BME280;6924;52.122;9.952;2023-02-10T07:52:04;102499.19;;;1.29;100.00
13705;BME280;6924;52.122;9.952;2023-02-10T07:54:32;102506.91;;;1.27;100.00
13705;BME280;6924;52.122;9.952;2023-02-10T07:56:58;102503.47;;;1.24;100.00
13705;BME280;6924;52.122;9.952;2023-02-10T07:59:25;102504.94;;;1.20;100.00
13705;BME280;6924;52.122;9.952;2023-02-10T08:01:52;102505.59;;;1.22;100.00
13705;BME280;6924;52.122;9.952;2023-02-10T08:04:18;102506.25;;;1.24;100.00
13705;BME280;6924;52.122;9.952;2023-02-10T08:06:44;102509.91;;;1.32;100.00
13705;BME280;6924;52.122;9.952;2023-02-10T08:09:11;102512.72;;;1.32;100.00
13705;BME280;6924;52.122;9.952;2023-02-10T08:11:38;102511.25;;;1.36;100.00
13705;BME280;6924;52.122;9.952;2023-02-10T08:14:05;102515.16;;;1.41;100.00
13705;BME280;6924;52.122;9.952;2023-02-10T08:16:31;102519.03;;;1.47;100.00
13705;BME280;6924;52.122;9.952;2023-02-10T08:18:58;102518.97;;;1.40;100.00
13705;BME280;6924;52.122;9.952;2023-02-10T08:21:24;102521.59;;;1.49;100.00
13705;BME280;6924;52.122;9.952;2023-02-10T08:23:51;102519.25;;;1.46;100.00
13705;BME280;6924;52.122;9.952;2023-02-10T08:26:20;102521.41;;;1.50;100.00
13705;BME280;6924;52.122;9.952;2023-02-10T08:28:49;102528.53;;;1.59;100.00
13705;BME280;6924;52.122;9.952;2023-02-10T08:31:15;102525.97;;;1.64;100.00
13705;BME280;6924;52.122;9.952;2023-02-10T08:33:42;102528.59;;;1.73;100.00
13705;BME280;6924;52.122;9.952;2023-02-10T08:36:10;102535.66;;;1.69;100.00
13705;BME280;6924;52.122;9.952;2023-02-10T08:38:37;102529.41;;;1.67;100.00
13705;BME280;6924;52.122;9.952;2023-02-10T08:41:04;102533.94;;;1.68;100.00
13705;BME280;6924;52.122;9.952;2023-02-10T08:43:31;102535.22;;;1.72;100.00
13705;BME280;6924;52.122;9.952;2023-02-10T08:46:00;102532.88;;;1.75;100.00
13705;BME280;6924;52.122;9.952;2023-02-10T08:48:27;102534.63;;;1.83;100.00
13705;BME280;6924;52.122;9.952;2023-02-10T08:50:55;102533.59;;;1.91;100.00
13705;BME280;6924;52.122;9.952;2023-02-10T08:53:22;102532.31;;;1.93;100.00
13705;BME280;6924;52.122;9.952;2023-02-10T08:55:55;102530.66;;;2.05;100.00
13705;BME280;6924;52.122;9.952;2023-02-10T08:58:22;102531.31;;;2.08;100.00
13705;BME280;6924;52.122;9.952;2023-02-10T09:00:48;102535.19;;;2.20;100.00
13705;BME280;6924;52.122;9.952;2023-02-10T09:03:16;102535.66;;;2.30;100.00
13705;BME280;6924;52.122;9.952;2023-02-10T09:05:43;102535.88;;;2.35;100.00
13705;BME280;6924;52.122;9.952;2023-02-10T09:08:11;102539.53;;;2.42;100.00
13705;BME280;6924;52.122;9.952;2023-02-10T09:10:38;102536.53;;;2.51;100.00
13705;BME280;6924;52.122;9.952;2023-02-10T09:13:05;102546.41;;;2.60;100.00
13705;BME280;6924;52.122;9.952;2023-02-10T09:15:33;102540.00;;;2.73;100.00
13705;BME280;6924;52.122;9.952;2023-02-10T09:18:02;102540.84;;;2.86;100.00
13705;BME280;6924;52.122;9.952;2023-02-10T09:20:30;102548.16;;;2.94;100.00
13705;BME280;6924;52.122;9.952;2023-02-10T09:22:56;102536.97;;;3.07;100.00
13705;BME280;6924;52.122;9.952;2023-02-10T09:25:22;102538.25;;;3.18;100.00
13705;BME280;6924;52.122;9.952;2023-02-10T09:27:50;102544.88;;;3.30;100.00
13705;BME280;6924;52.122;9.952;2023-02-10T09:30:17;102535.19;;;3.53;100.00
13705;BME280;6924;52.122;9.952;2023-02-10T09:32:43;102544.19;;;3.62;99.08
13705;BME280;6924;52.122;9.952;2023-02-10T09:35:10;102541.13;;;3.70;98.44
13705;BME280;6924;52.122;9.952;2023-02-10T09:37:38;102558.13;;;3.82;98.46
13705;BME280;6924;52.122;9.952;2023-02-10T09:40:04;102551.41;;;3.89;96.77
13705;BME280;6924;52.122;9.952;2023-02-10T09:42:40;102562.13;;;3.99;96.45
13705;BME280;6924;52.122;9.952;2023-02-10T09:45:16;102557.78;;;4.03;94.91
13705;BME280;6924;52.122;9.952;2023-02-10T09:47:48;102563.38;;;4.03;94.17
13705;BME280;6924;52.122;9.952;2023-02-10T09:50:25;102566.22;;;3.97;93.29
13705;BME280;6924;52.122;9.952;2023-02-10T09:53:03;102570.94;;;4.03;94.33
13705;BME280;6924;52.122;9.952;2023-02-10T09:55:34;102571.19;;;3.94;93.15
13705;BME280;6924;52.122;9.952;2023-02-10T09:58:06;102570.31;;;3.94;93.29
13705;BME280;6924;52.122;9.952;2023-02-10T10:00:39;102577.22;;;3.91;94.07
13705;BME280;6924;52.122;9.952;2023-02-10T10:03:07;102564.13;;;3.79;93.38
13705;BME280;6924;52.122;9.952;2023-02-10T10:05:44;102571.44;;;3.86;94.31
13705;BME280;6924;52.122;9.952;2023-02-10T10:08:21;102571.63;;;3.91;93.88
13705;BME280;6924;52.122;9.952;2023-02-10T10:10:49;102560.69;;;3.83;94.25
13705;BME280;6924;52.122;9.952;2023-02-10T10:13:21;102559.16;;;3.87;94.02
13705;BME280;6924;52.122;9.952;2023-02-10T10:15:56;102560.28;;;3.80;94.66
13705;BME280;6924;52.122;9.952;2023-02-10T10:18:33;102568.66;;;3.86;95.25
13705;BME280;6924;52.122;9.952;2023-02-10T10:21:08;102557.22;;;3.88;94.94
13705;BME280;6924;52.122;9.952;2023-02-10T10:23:46;102564.34;;;3.84;95.14
13705;BME280;6924;52.122;9.952;2023-02-10T10:26:34;102567.81;;;3.72;94.69
13705;BME280;6924;52.122;9.952;2023-02-10T10:29:14;102566.09;;;3.78;94.22
13705;BME280;6924;52.122;9.952;2023-02-10T10:31:45;102562.78;;;3.94;95.11
13705;BME280;6924;52.122;9.952;2023-02-10T10:34:15;102549.00;;;4.00;94.66
13705;BME280;6924;52.122;9.952;2023-02-10T10:36:44;102555.41;;;4.07;94.07
13705;BME280;6924;52.122;9.952;2023-02-10T10:39:16;102554.53;;;4.13;94.03
13705;BME280;6924;52.122;9.952;2023-02-10T10:41:48;102556.94;;;4.03;93.01
13705;BME280;6924;52.122;9.952;2023-02-10T10:44:17;102550.25;;;4.10;93.17
13705;BME280;6924;52.122;9.952;2023-02-10T10:46:47;102545.06;;;4.07;92.25
13705;BME280;6924;52.122;9.952;2023-02-10T10:49:14;102557.75;;;4.10;92.48
13705;BME280;6924;52.122;9.952;2023-02-10T10:51:41;102551.44;;;4.28;92.35
13705;BME280;6924;52.122;9.952;2023-02-10T10:54:14;102551.63;;;4.33;91.67
13705;BME280;6924;52.122;9.952;2023-02-10T10:56:43;102545.06;;;4.46;91.48
13705;BME280;6924;52.122;9.952;2023-02-10T10:59:15;102537.91;;;4.57;90.65
13705;BME280;6924;52.122;9.952;2023-02-10T11:01:44;102524.22;;;4.67;89.61
13705;BME280;6924;52.122;9.952;2023-02-10T11:04:13;102536.09;;;4.62;89.41
13705;BME280;6924;52.122;9.952;2023-02-10T11:06:42;102527.25;;;4.65;89.48
13705;BME280;6924;52.122;9.952;2023-02-10T11:09:21;102531.50;;;4.74;89.93
13705;BME280;6924;52.122;9.952;2023-02-10T11:11:49;102531.59;;;4.86;89.16
13705;BME280;6924;52.122;9.952;2023-02-10T11:14:17;102541.22;;;4.97;88.70
13705;BME280;6924;52.122;9.952;2023-02-10T11:16:47;102536.41;;;5.04;87.81
13705;BME280;6924;52.122;9.952;2023-02-10T11:19:20;102522.50;;;5.16;88.52
13705;BME280;6924;52.122;9.952;2023-02-10T11:21:46;102532.22;;;5.13;86.71
13705;BME280;6924;52.122;9.952;2023-02-10T11:24:19;102514.94;;;5.16;85.97
13705;BME280;6924;52.122;9.952;2023-02-10T11:26:54;102514.53;;;5.13;86.04
13705;BME280;6924;52.122;9.952;2023-02-10T11:29:21;102527.50;;;5.14;85.85
13705;BME280;6924;52.122;9.952;2023-02-10T11:31:50;102520.56;;;5.16;85.92
13705;BME280;6924;52.122;9.952;2023-02-10T11:34:19;102521.25;;;5.12;85.31
13705;BME280;6924;52.122;9.952;2023-02-10T11:36:48;102524.69;;;5.14;85.93
13705;BME280;6924;52.122;9.952;2023-02-10T11:39:22;102523.44;;;5.10;84.81
13705;BME280;6924;52.122;9.952;2023-02-10T11:41:50;102529.03;;;5.10;84.68
13705;BME280;6924;52.122;9.952;2023-02-10T11:44:24;102516.72;;;5.11;84.67
13705;BME280;6924;52.122;9.952;2023-02-10T11:46:55;102520.91;;;5.02;85.32
13705;BME280;6924;52.122;9.952;2023-02-10T11:49:22;102515.81;;;4.92;84.84
13705;BME280;6924;52.122;9.952;2023-02-10T11:51:51;102512.19;;;4.85;85.42
13705;BME280;6924;52.122;9.952;2023-02-10T11:54:18;102518.00;;;4.90;86.07
13705;BME280;6924;52.122;9.952;2023-02-10T11:56:56;102512.03;;;4.80;84.66
13705;BME280;6924;52.122;9.952;2023-02-10T11:59:48;102515.56;;;4.93;85.66
13705;BME280;6924;52.122;9.952;2023-02-10T12:02:27;102511.44;;;4.96;85.11
13705;BME280;6924;52.122;9.952;2023-02-10T12:05:08;102506.47;;;4.98;85.24
13705;BME280;6924;52.122;9.952;2023-02-10T12:07:51;102501.06;;;5.03;85.76
13705;BME280;6924;52.122;9.952;2023-02-10T12:10:27;102505.34;;;5.24;85.05
13705;BME280;6924;52.122;9.952;2023-02-10T12:13:00;102497.41;;;5.21;84.35
13705;BME280;6924;52.122;9.952;2023-02-10T12:15:35;102503.16;;;5.08;83.61
13705;BME280;6924;52.122;9.952;2023-02-10T12:18:14;102502.31;;;5.07;84.13
13705;BME280;6924;52.122;9.952;2023-02-10T12:20:57;102510.81;;;5.19;83.61
13705;BME280;6924;52.122;9.952;2023-02-10T12:23:37;102511.28;;;5.16;83.54
13705;BME280;6924;52.122;9.952;2023-02-10T12:26:10;102509.75;;;4.95;83.24
13705;BME280;6924;52.122;9.952;2023-02-10T12:28:51;102501.28;;;5.02;83.67
13705;BME280;6924;52.122;9.952;2023-02-10T12:31:25;102504.75;;;4.97;83.92
13705;BME280;6924;52.122;9.952;2023-02-10T12:34:12;102506.09;;;4.94;85.03
13705;BME280;6924;52.122;9.952;2023-02-10T12:36:48;102505.00;;;4.95;84.20
13705;BME280;6924;52.122;9.952;2023-02-10T12:39:22;102501.91;;;5.04;84.52
13705;BME280;6924;52.122;9.952;2023-02-10T12:41:59;102499.38;;;4.95;84.17
13705;BME280;6924;52.122;9.952;2023-02-10T12:44:43;102486.47;;;4.94;83.92
13705;BME280;6924;52.122;9.952;2023-02-10T12:47:26;102491.22;;;4.94;84.17
13705;BME280;6924;52.122;9.952;2023-02-10T12:50:19;102491.81;;;4.96;83.99
13705;BME280;6924;52.122;9.952;2023-02-10T12:52:50;102491.81;;;4.96;83.88
13705;BME280;6924;52.122;9.952;2023-02-10T12:55:23;102482.88;;;4.87;84.13
13705;BME280;6924;52.122;9.952;2023-02-10T12:57:54;102483.94;;;4.86;82.79
13705;BME280;6924;52.122;9.952;2023-02-10T13:00:27;102486.69;;;4.93;84.30
13705;BME280;6924;52.122;9.952;2023-02-10T13:02:58;102478.03;;;4.94;83.37
13705;BME280;6924;52.122;9.952;2023-02-10T13:05:30;102466.56;;;4.96;83.60
13705;BME280;6924;52.122;9.952;2023-02-10T13:08:00;102471.03;;;5.04;83.32
13705;BME280;6924;52.122;9.952;2023-02-10T13:10:31;102469.09;;;5.04;82.96
13705;BME280;6924;52.122;9.952;2023-02-10T13:13:02;102464.25;;;5.11;83.10
13705;BME280;6924;52.122;9.952;2023-02-10T13:15:33;102465.66;;;5.02;82.09
13705;BME280;6924;52.122;9.952;2023-02-10T13:18:14;102463.03;;;5.07;82.78
13705;BME280;6924;52.122;9.952;2023-02-10T13:20:44;102465.16;;;5.12;83.31